LEAM/LEI METAR and TAF weather

Enter ICAO airport designator
Station Type Date Time Source
LEAM METAR 2021/02/24 17:30 UTC NOAA

LEAM 241730Z 07021KT 9999 FEW030 17/09 Q1029


Station Type Date Time Source
LEAM Decoded METAR 2021/02/24 17:30 UTC NOAA

Almeria / Aeropuerto, Spain (LEAM) 36-51N 002-23W 21M
Feb 24, 2021 - 12:30 PM EST / 2021.02.24 1730 UTC
Wind: from the ENE (070 degrees) at 24 MPH (21 KT):0
Visibility: greater than 7 mile(s):0
Sky conditions: mostly clear
Temperature: 62 F (17 C)
Dew Point: 48 F (9 C)
Relative Humidity: 59%
Pressure (altimeter): 30.39 in. Hg (1029 hPa)
ob: LEAM 241730Z 07021KT 9999 FEW030 17/09 Q1029
cycle: 17

Station Type Date Time Source
LEAM TAF 2021/02/24 15:27 UTC NOAA

TAF TAF LEAM 241400Z 2415/2515 08015KT CAVOK TX20/2515Z TN11/2506Z PROB40
TEMPO 2415/2418 08015G25KT
BECMG 2419/2421 03005KT
BECMG 2500/2502 33010KT
BECMG 2509/2511 07015KT

Example: see airport list